Time;durP1;ratioP1;P1;durP2;ratioP2;P2;SDS_P1;SDS_P2;PMS_P1;PMS_P2;Temp;Humidity;BMP_temperature;BMP_pressure;BME280_temperature;BME280_humidity;BME280_pressure;Samples;Min_cycle;Max_cycle;Signal;HPM_P1;HPM_P2
2022/04/18 00:01:52;;;;;;;14.93;8.98;;;9.50;76.80;;;;;;5092669;28;20079;-58
2022/04/18 00:04:18;;;;;;;14.82;8.77;;;9.50;76.80;;;;;;5092408;28;20036;-58
2022/04/18 00:06:43;;;;;;;15.25;9.82;;;9.50;77.00;;;;;;5092730;28;20359;-58
2022/04/18 00:09:09;;;;;;;14.63;10.18;;;9.50;77.30;;;;;;5092289;28;20039;-59
2022/04/18 00:11:35;;;;;;;18.52;10.77;;;9.40;77.70;;;;;;5090816;28;20055;-58
2022/04/18 00:14:01;;;;;;;14.50;9.77;;;9.40;77.40;;;;;;5092360;28;20031;-58
2022/04/18 00:16:27;;;;;;;13.75;9.90;;;9.30;78.40;;;;;;5092213;28;20122;-58
2022/04/18 00:18:53;;;;;;;17.80;9.77;;;9.30;78.60;;;;;;5092164;28;20036;-59
2022/04/18 00:21:19;;;;;;;16.75;10.05;;;9.20;78.50;;;;;;5092261;28;20040;-58
2022/04/18 00:23:45;;;;;;;13.70;9.60;;;9.20;79.40;;;;;;5091874;28;20048;-58
2022/04/18 00:26:12;;;;;;;13.68;10.25;;;9.30;79.30;;;;;;5092381;28;20044;-58
2022/04/18 00:28:37;;;;;;;13.68;10.27;;;9.20;80.20;;;;;;5092233;28;20040;-58
2022/04/18 00:31:03;;;;;;;14.98;9.75;;;9.10;79.90;;;;;;5092279;28;20032;-58
2022/04/18 00:33:29;;;;;;;14.20;10.20;;;9.10;79.30;;;;;;5092268;28;20470;-58
2022/04/18 00:35:55;;;;;;;15.93;9.75;;;9.10;80.30;;;;;;5092329;28;20036;-58
2022/04/18 00:38:22;;;;;;;16.48;11.02;;;9.00;80.50;;;;;;5090929;28;20048;-58
2022/04/18 00:40:47;;;;;;;19.17;10.15;;;9.00;80.80;;;;;;5091664;28;20036;-59
2022/04/18 00:43:14;;;;;;;17.58;11.20;;;9.00;81.50;;;;;;5092135;28;20042;-59
2022/04/18 00:45:40;;;;;;;17.60;11.23;;;8.90;82.20;;;;;;5091663;28;20505;-58
2022/04/18 00:48:05;;;;;;;14.70;9.85;;;8.90;82.10;;;;;;5091711;28;20051;-59
2022/04/18 00:50:33;;;;;;;15.30;10.27;;;8.90;81.70;;;;;;5092071;28;20044;-59
2022/04/18 00:52:59;;;;;;;15.23;11.05;;;8.90;82.90;;;;;;5091816;28;20153;-58
2022/04/18 00:55:27;;;;;;;16.35;10.82;;;8.90;83.00;;;;;;5091637;28;20473;-59
2022/04/18 00:57:54;;;;;;;16.07;11.10;;;8.90;83.90;;;;;;5090485;28;20565;-58
2022/04/18 01:00:21;;;;;;;15.98;10.00;;;8.90;83.20;;;;;;5092109;28;20128;-59
2022/04/18 01:02:48;;;;;;;15.45;11.10;;;8.80;83.80;;;;;;5091837;28;20043;-59
2022/04/18 01:05:14;;;;;;;15.07;10.48;;;8.80;84.00;;;;;;5091930;28;20040;-58
2022/04/18 01:07:40;;;;;;;16.30;11.23;;;8.90;84.40;;;;;;5092435;28;20035;-58
2022/04/18 01:10:07;;;;;;;15.20;11.13;;;8.80;85.00;;;;;;5091719;28;20502;-58
2022/04/18 01:12:36;;;;;;;19.58;10.77;;;8.80;85.30;;;;;;5092318;28;20040;-58
2022/04/18 01:15:01;;;;;;;;;;;8.80;84.90;;;;;;5091869;28;20040;-59
2022/04/18 01:17:27;;;;;;;17.58;10.57;;;8.80;86.70;;;;;;5090108;28;19923;-59
2022/04/18 01:19:53;;;;;;;17.80;11.23;;;8.70;85.50;;;;;;5091533;28;20121;-58
2022/04/18 01:22:19;;;;;;;13.63;10.60;;;8.70;86.00;;;;;;5091553;28;20414;-59
2022/04/18 01:30:15;;;;;;;13.23;10.63;;;8.60;87.20;;;;;;5091792;28;20058;-59
2022/04/18 01:32:41;;;;;;;13.43;10.27;;;8.60;87.50;;;;;;5091877;28;20036;-58
2022/04/18 01:35:07;;;;;;;15.40;11.15;;;8.60;88.10;;;;;;5092562;28;20032;-58
2022/04/18 01:37:34;;;;;;;16.75;10.65;;;8.50;88.70;;;;;;5095226;28;20040;-58
2022/04/18 01:40:00;;;;;;;16.02;10.70;;;8.50;88.30;;;;;;5095129;28;20040;-58
2022/04/18 01:42:26;;;;;;;15.60;11.32;;;8.50;89.30;;;;;;5095326;28;20043;-58
2022/04/18 01:44:51;;;;;;;15.68;11.07;;;8.50;88.90;;;;;;5094945;28;20086;-59
2022/04/18 01:47:18;;;;;;;16.70;11.02;;;8.40;89.80;;;;;;5094702;28;20055;-59
2022/04/18 01:49:44;;;;;;;15.90;10.82;;;8.40;90.00;;;;;;5093733;28;20050;-58
2022/04/18 01:52:09;;;;;;;17.33;10.77;;;8.40;90.40;;;;;;5094918;28;20036;-59
2022/04/18 01:54:35;;;;;;;16.65;11.25;;;8.40;90.80;;;;;;5094763;28;20050;-59
2022/04/18 01:57:00;;;;;;;15.27;10.93;;;8.40;90.80;;;;;;5094949;28;20474;-58
2022/04/18 01:59:26;;;;;;;16.38;11.48;;;8.30;91.30;;;;;;5094638;28;20043;-58
2022/04/18 02:01:52;;;;;;;17.40;10.55;;;8.30;90.90;;;;;;5094596;28;20040;-58
2022/04/18 02:04:17;;;;;;;14.95;11.20;;;8.30;90.80;;;;;;5094496;28;20072;-58
2022/04/18 02:06:43;;;;;;;14.48;10.85;;;8.40;90.70;;;;;;5094780;28;20039;-58
2022/04/18 02:09:08;;;;;;;14.70;10.57;;;8.40;90.50;;;;;;5094824;28;20434;-58
2022/04/18 02:11:34;;;;;;;14.80;10.50;;;8.30;90.80;;;;;;5094721;28;20071;-60
2022/04/18 02:14:00;;;;;;;15.75;10.95;;;8.30;90.90;;;;;;5094946;28;20044;-60
2022/04/18 02:16:28;;;;;;;16.02;11.13;;;8.40;90.90;;;;;;5094665;28;20050;-60
2022/04/18 02:18:54;;;;;;;16.75;11.52;;;8.30;91.00;;;;;;5093232;28;20580;-60
2022/04/18 02:21:20;;;;;;;19.08;11.07;;;8.30;91.30;;;;;;5094862;28;20093;-60
2022/04/18 02:23:45;;;;;;;16.77;11.60;;;8.30;91.00;;;;;;5094319;28;20494;-61
2022/04/18 02:26:11;;;;;;;15.52;10.88;;;8.30;91.20;;;;;;5094359;28;20036;-60
2022/04/18 02:28:37;;;;;;;16.42;11.38;;;8.30;91.50;;;;;;5094314;28;20040;-60
2022/04/18 02:31:02;;;;;;;18.08;11.82;;;8.30;91.30;;;;;;5094376;28;20032;-61
2022/04/18 02:33:28;;;;;;;15.60;10.52;;;8.20;91.70;;;;;;5093015;28;20059;-60
2022/04/18 02:35:54;;;;;;;15.98;10.95;;;8.20;91.50;;;;;;5094466;28;20032;-60
2022/04/18 02:38:20;;;;;;;15.60;10.90;;;8.20;92.10;;;;;;5094196;28;20040;-61
2022/04/18 02:40:46;;;;;;;15.23;10.65;;;8.20;91.90;;;;;;5094367;28;20054;-60
2022/04/18 02:43:12;;;;;;;15.65;10.48;;;8.10;92.10;;;;;;5094127;28;20036;-60
2022/04/18 02:45:37;;;;;;;17.20;10.63;;;8.10;92.10;;;;;;5093262;28;20063;-60
2022/04/18 02:48:04;;;;;;;16.38;10.63;;;8.20;92.00;;;;;;5094106;28;20044;-61
2022/04/18 02:50:30;;;;;;;22.40;11.10;;;8.10;92.50;;;;;;5094012;28;20075;-60
2022/04/18 02:52:56;;;;;;;16.00;10.93;;;8.10;92.40;;;;;;5094165;28;20145;-60
2022/04/18 02:55:22;;;;;;;17.13;11.65;;;8.10;92.70;;;;;;5093687;28;20111;-60
2022/04/18 02:57:48;;;;;;;19.08;11.85;;;8.20;92.40;;;;;;5093656;28;20039;-61
2022/04/18 03:00:13;;;;;;;15.50;11.23;;;8.20;92.50;;;;;;5093679;28;20458;-61
2022/04/18 03:02:39;;;;;;;15.00;11.10;;;8.20;92.40;;;;;;5093847;28;20497;-60
2022/04/18 03:05:07;;;;;;;19.63;11.52;;;8.20;92.70;;;;;;5093873;28;20567;-61
2022/04/18 03:07:33;;;;;;;15.50;11.25;;;8.20;92.70;;;;;;5092671;28;20048;-60
2022/04/18 03:09:59;;;;;;;15.45;11.05;;;8.20;92.70;;;;;;5093957;28;20071;-60
2022/04/18 03:12:25;;;;;;;17.00;11.52;;;8.10;93.20;;;;;;5093166;28;20081;-60
2022/04/18 03:14:52;;;;;;;16.92;11.27;;;8.10;93.50;;;;;;5093345;28;20044;-60
2022/04/18 03:17:18;;;;;;;16.58;11.48;;;8.10;93.50;;;;;;5091827;28;20043;-60
2022/04/18 03:19:44;;;;;;;17.88;11.45;;;8.00;93.50;;;;;;5093094;28;20089;-61
2022/04/18 03:22:10;;;;;;;19.92;11.88;;;8.00;93.70;;;;;;5092986;28;20036;-60
2022/04/18 03:24:36;;;;;;;16.33;11.55;;;8.00;94.30;;;;;;5093228;28;20072;-60
2022/04/18 03:27:02;;;;;;;15.18;10.85;;;7.90;94.50;;;;;;5093091;28;20032;-60
2022/04/18 03:29:28;;;;;;;17.95;11.82;;;7.80;95.70;;;;;;5092990;28;20040;-60
2022/04/18 03:31:54;;;;;;;17.50;11.95;;;7.80;95.60;;;;;;5092869;28;20044;-60
2022/04/18 03:34:20;;;;;;;22.02;13.05;;;7.80;95.40;;;;;;5093117;28;20089;-60
2022/04/18 03:42:15;;;;;;;18.67;12.05;;;7.80;95.80;;;;;;5091538;28;20401;-60
2022/04/18 03:44:47;;;;;;;16.88;11.88;;;7.70;96.10;;;;;;5092921;28;20028;-60
2022/04/18 03:47:16;;;;;;;17.95;12.07;;;7.60;96.20;;;;;;5092657;28;20056;-61
2022/04/18 03:49:42;;;;;;;16.33;11.68;;;7.60;96.50;;;;;;5092667;28;20120;-61
2022/04/18 03:52:09;;;;;;;15.57;11.00;;;7.50;97.00;;;;;;5092512;28;20036;-60
2022/04/18 03:54:35;;;;;;;17.98;12.15;;;7.50;97.20;;;;;;5092617;28;20032;-60
2022/04/18 03:57:01;;;;;;;19.50;13.40;;;7.50;97.50;;;;;;5092481;28;20415;-60
2022/04/18 03:59:28;;;;;;;18.90;11.93;;;7.40;97.60;;;;;;5092033;28;20032;-61
2022/04/18 04:01:53;;;;;;;18.70;12.35;;;7.40;98.20;;;;;;5092229;28;20509;-61
2022/04/18 04:04:19;;;;;;;18.33;11.25;;;7.30;97.90;;;;;;5092465;28;20036;-61
2022/04/18 04:06:45;;;;;;;16.00;11.18;;;7.30;98.00;;;;;;5092371;28;20474;-61
2022/04/18 04:09:10;;;;;;;16.23;11.20;;;7.30;98.30;;;;;;5091364;28;20051;-61
2022/04/18 04:11:37;;;;;;;18.15;12.30;;;7.30;98.50;;;;;;5092469;28;20036;-60
2022/04/18 04:14:03;;;;;;;16.65;11.43;;;7.30;98.80;;;;;;5092779;28;20043;-60
2022/04/18 04:16:28;;;;;;;18.63;12.30;;;7.30;98.70;;;;;;5092418;28;20044;-60
2022/04/18 04:18:54;;;;;;;16.70;11.07;;;7.30;98.90;;;;;;5092239;28;20047;-60
2022/04/18 04:21:19;;;;;;;17.10;12.10;;;7.30;99.00;;;;;;5092406;28;20040;-60
2022/04/18 04:23:45;;;;;;;17.70;11.55;;;7.30;99.40;;;;;;5092177;28;20116;-60
2022/04/18 04:26:11;;;;;;;17.13;11.73;;;7.20;99.50;;;;;;5090968;28;20032;-60
2022/04/18 04:28:37;;;;;;;19.67;11.15;;;7.20;99.80;;;;;;5092098;28;20036;-60
2022/04/18 04:31:03;;;;;;;17.02;11.35;;;7.30;99.70;;;;;;5092243;28;20042;-60
2022/04/18 04:33:30;;;;;;;18.67;11.85;;;7.20;99.90;;;;;;5090706;28;20066;-60
2022/04/18 04:36:00;;;;;;;17.17;11.10;;;7.20;99.90;;;;;;5091993;28;20055;-60
2022/04/18 04:38:25;;;;;;;;;;;7.20;99.90;;;;;;5092109;28;20044;-60
2022/04/18 04:40:55;;;;;;;15.50;11.63;;;7.40;99.90;;;;;;5092338;28;19916;-60
2022/04/18 04:43:21;;;;;;;15.52;11.10;;;7.20;99.90;;;;;;5092120;28;20055;-60
2022/04/18 04:45:47;;;;;;;15.70;11.88;;;7.20;99.90;;;;;;5091867;28;20498;-60
2022/04/18 04:48:12;;;;;;;17.10;11.35;;;7.10;99.90;;;;;;5091943;28;20501;-60
2022/04/18 04:50:39;;;;;;;15.85;10.55;;;7.10;99.90;;;;;;5091830;28;20032;-60
2022/04/18 04:53:05;;;;;;;16.98;11.45;;;7.10;99.90;;;;;;5091905;28;20195;-60
2022/04/18 04:55:31;;;;;;;16.88;11.40;;;7.20;99.90;;;;;;5091926;28;20127;-60
2022/04/18 04:57:57;;;;;;;16.45;10.50;;;7.20;99.90;;;;;;5090704;28;20048;-60
2022/04/18 05:00:24;;;;;;;16.73;10.43;;;7.20;99.90;;;;;;5091939;28;20105;-60
2022/04/18 05:02:49;;;;;;;15.43;10.75;;;7.20;99.90;;;;;;5091728;28;20072;-60
2022/04/18 05:05:15;;;;;;;15.43;10.13;;;7.20;99.90;;;;;;5091489;28;20071;-60
2022/04/18 05:07:40;;;;;;;17.00;11.07;;;7.30;99.90;;;;;;5091724;28;20036;-60
2022/04/18 05:10:06;;;;;;;15.57;10.80;;;7.20;99.90;;;;;;5094630;28;20090;-60
2022/04/18 05:12:32;;;;;;;21.98;11.02;;;7.30;99.90;;;;;;5095847;28;20059;-60
2022/04/18 05:15:02;;;;;;;15.38;9.77;;;7.30;99.90;;;;;;5095770;28;20082;-60
2022/04/18 05:17:28;;;;;;;17.15;11.13;;;7.40;99.90;;;;;;5094421;28;20044;-60
2022/04/18 05:19:54;;;;;;;16.70;11.57;;;7.40;99.90;;;;;;5095540;28;20058;-60
2022/04/18 05:22:19;;;;;;;19.02;11.55;;;7.40;99.90;;;;;;5095775;28;20036;-60
2022/04/18 05:24:45;;;;;;;15.30;9.73;;;7.50;99.90;;;;;;5095878;28;20781;-60
2022/04/18 05:27:15;;;;;;;16.42;9.93;;;7.50;99.90;;;;;;5095418;28;20046;-60
2022/04/18 05:29:44;;;;;;;14.35;9.95;;;7.60;99.90;;;;;;5094250;28;20052;-60
2022/04/18 05:32:10;;;;;;;16.58;10.52;;;7.60;99.90;;;;;;5095401;28;20482;-60
2022/04/18 05:34:36;;;;;;;17.75;10.70;;;7.70;99.90;;;;;;5095084;28;20051;-60
2022/04/18 05:37:02;;;;;;;13.40;9.40;;;7.80;99.90;;;;;;5095531;28;20032;-61
2022/04/18 05:39:27;;;;;;;12.35;9.15;;;7.90;99.90;;;;;;5095487;28;20040;-60
2022/04/18 05:41:53;;;;;;;12.60;9.68;;;8.00;99.90;;;;;;5095367;28;20201;-61
2022/04/18 05:44:19;;;;;;;15.82;9.88;;;8.00;99.90;;;;;;5093796;28;20051;-60
2022/04/18 05:46:45;;;;;;;20.27;9.73;;;8.10;99.90;;;;;;5094945;28;20048;-60
2022/04/18 05:49:10;;;;;;;11.98;9.68;;;8.20;99.90;;;;;;5093705;28;20402;-61
2022/04/18 05:51:38;;;;;;;16.02;10.35;;;8.30;99.90;;;;;;5095015;28;20126;-61
2022/04/18 05:54:04;;;;;;;12.43;9.75;;;8.40;99.90;;;;;;5094997;28;20036;-60
2022/04/18 05:56:30;;;;;;;14.35;9.80;;;8.60;99.60;;;;;;5094911;28;20044;-60
2022/04/18 05:58:56;;;;;;;16.13;9.80;;;8.70;99.70;;;;;;5094898;28;20048;-60
2022/04/18 06:01:22;;;;;;;15.00;10.18;;;8.80;99.30;;;;;;5093455;28;20525;-60
2022/04/18 06:03:48;;;;;;;12.88;9.65;;;8.90;98.80;;;;;;5093530;28;20123;-60
2022/04/18 06:06:16;;;;;;;14.35;9.80;;;9.00;99.00;;;;;;5094770;28;20040;-60
2022/04/18 06:08:42;;;;;;;14.27;9.05;;;9.20;98.70;;;;;;5094806;28;20079;-60
2022/04/18 06:11:08;;;;;;;13.48;9.95;;;9.40;98.20;;;;;;5094560;28;20071;-60
2022/04/18 06:13:34;;;;;;;15.10;10.32;;;9.40;98.30;;;;;;5093256;28;20089;-60
2022/04/18 06:16:00;;;;;;;15.18;9.32;;;9.60;98.10;;;;;;5094388;28;20097;-60
2022/04/18 06:18:26;;;;;;;12.43;9.07;;;9.70;98.00;;;;;;5094141;28;20059;-61
2022/04/18 06:20:52;;;;;;;15.93;9.00;;;9.90;98.00;;;;;;5092102;28;20044;-61
2022/04/18 06:23:18;;;;;;;11.55;8.88;;;10.20;97.30;;;;;;5094269;28;20032;-60
2022/04/18 06:25:44;;;;;;;12.77;10.00;;;10.30;97.50;;;;;;5094345;28;20069;-60
2022/04/18 06:28:12;;;;;;;15.43;9.48;;;10.60;96.70;;;;;;5094213;28;20047;-60
2022/04/18 06:30:38;;;;;;;19.55;10.35;;;10.60;96.40;;;;;;5094115;28;20063;-61
2022/04/18 06:33:03;;;;;;;15.85;9.98;;;10.60;95.60;;;;;;5093902;28;20032;-61
2022/04/18 06:35:29;;;;;;;13.98;9.57;;;10.70;95.80;;;;;;5094137;28;20044;-60
2022/04/18 06:37:55;;;;;;;14.02;9.57;;;10.80;96.00;;;;;;5094355;28;20051;-60
2022/04/18 06:40:20;;;;;;;15.50;10.07;;;10.90;95.20;;;;;;5094051;28;20450;-61
2022/04/18 06:42:46;;;;;;;12.48;9.10;;;11.00;94.40;;;;;;5093914;28;20120;-60
2022/04/18 06:45:12;;;;;;;14.82;9.15;;;11.20;95.50;;;;;;5094223;28;20386;-60
2022/04/18 06:47:37;;;;;;;13.75;9.65;;;11.30;95.00;;;;;;5093542;28;20044;-60
2022/04/18 06:50:08;;;;;;;12.27;9.30;;;11.30;94.50;;;;;;5094002;28;20075;-61
2022/04/18 06:52:41;;;;;;;14.43;9.80;;;11.40;93.50;;;;;;5093964;28;20391;-60
2022/04/18 06:55:08;;;;;;;15.25;8.85;;;11.60;94.10;;;;;;5093756;28;20024;-60
2022/04/18 06:57:35;;;;;;;14.48;9.00;;;11.60;94.20;;;;;;5093511;28;20028;-60
2022/04/18 07:00:02;;;;;;;13.00;9.13;;;11.80;94.00;;;;;;5092249;28;20477;-60
2022/04/18 07:02:28;;;;;;;13.73;9.82;;;12.20;93.90;;;;;;5093390;28;20035;-62
2022/04/18 07:04:53;;;;;;;15.30;9.88;;;12.30;93.50;;;;;;5093546;28;20040;-61
2022/04/18 07:07:19;;;;;;;14.52;9.60;;;12.30;93.00;;;;;;5093556;28;20044;-61
2022/04/18 07:09:45;;;;;;;12.88;9.20;;;12.50;92.90;;;;;;5092596;28;20096;-62
2022/04/18 07:12:10;;;;;;;16.10;9.68;;;12.60;92.70;;;;;;5093056;28;20121;-61
2022/04/18 07:14:36;;;;;;;12.68;9.27;;;13.00;93.40;;;;;;5093137;28;20176;-61
2022/04/18 07:17:03;;;;;;;14.35;9.30;;;13.30;93.40;;;;;;5093246;28;20063;-61
2022/04/18 07:19:29;;;;;;;14.20;9.07;;;13.40;92.50;;;;;;5092981;28;20043;-62
2022/04/18 07:21:55;;;;;;;13.98;9.32;;;13.70;92.50;;;;;;5093112;28;20028;-62
2022/04/18 07:24:22;;;;;;;11.63;8.80;;;14.10;92.70;;;;;;5093029;28;20032;-61
2022/04/18 07:26:48;;;;;;;12.18;8.48;;;14.30;91.70;;;;;;5092909;28;20048;-61
2022/04/18 07:29:14;;;;;;;13.05;8.93;;;14.90;91.90;;;;;;5092821;28;20040;-61
2022/04/18 07:31:40;;;;;;;11.48;8.40;;;15.30;91.70;;;;;;5092960;28;20082;-62
2022/04/18 07:34:06;;;;;;;12.02;8.18;;;15.40;90.40;;;;;;5092915;28;20089;-62
2022/04/18 07:36:32;;;;;;;11.70;9.20;;;15.70;90.60;;;;;;5092882;28;20071;-61
2022/04/18 07:38:58;;;;;;;12.05;8.30;;;15.90;90.80;;;;;;5092714;28;20131;-62
2022/04/18 07:41:25;;;;;;;12.10;8.93;;;16.00;89.60;;;;;;5092776;28;20085;-62
2022/04/18 07:43:52;;;;;;;13.27;9.23;;;16.20;89.50;;;;;;5093054;28;20040;-61
2022/04/18 07:46:18;;;;;;;10.40;8.23;;;16.30;89.90;;;;;;5092475;28;20043;-61
2022/04/18 07:48:48;;;;;;;12.43;8.85;;;16.30;87.20;;;;;;5092520;28;20565;-63
2022/04/18 07:54:00;;;;;;;10.35;7.72;;;17.00;89.10;;;;;;5092490;28;20118;-65
2022/04/18 07:56:26;;;;;;;11.32;7.88;;;17.00;86.20;;;;;;5092596;28;20040;-62
2022/04/18 07:58:53;;;;;;;9.10;7.30;;;17.20;84.20;;;;;;5092414;28;20067;-63
2022/04/18 08:01:19;;;;;;;10.48;7.18;;;17.50;86.00;;;;;;5092547;28;20430;-61
2022/04/18 08:03:46;;;;;;;8.32;6.72;;;17.20;81.50;;;;;;5092315;28;20032;-62
2022/04/18 08:06:12;;;;;;;10.75;7.70;;;17.80;83.20;;;;;;5091297;28;20511;-60
2022/04/18 08:08:38;;;;;;;11.07;7.07;;;17.60;79.60;;;;;;5092283;28;20035;-61
2022/04/18 08:11:04;;;;;;;7.97;6.60;;;17.90;81.60;;;;;;5092406;28;20036;-62
2022/04/18 08:13:29;;;;;;;7.60;6.80;;;18.00;79.40;;;;;;5092114;28;20058;-60
2022/04/18 08:15:55;;;;;;;9.02;6.05;;;18.20;78.00;;;;;;5092359;28;20074;-60
2022/04/18 08:18:22;;;;;;;13.00;6.75;;;17.80;78.50;;;;;;5092255;28;20776;-61
2022/04/18 08:20:48;;;;;;;8.98;6.78;;;18.50;80.30;;;;;;5092211;28;20083;-60
2022/04/18 08:23:14;;;;;;;7.22;6.18;;;18.40;78.70;;;;;;5092269;28;20084;-60
2022/04/18 08:25:39;;;;;;;8.45;7.25;;;18.60;79.40;;;;;;5091779;28;20044;-60
2022/04/18 08:28:05;;;;;;;9.65;7.00;;;18.30;75.70;;;;;;5090659;28;20056;-60
2022/04/18 08:30:31;;;;;;;8.77;6.85;;;18.50;77.60;;;;;;5091961;28;20036;-60
2022/04/18 08:32:57;;;;;;;8.02;6.57;;;18.40;78.80;;;;;;5092004;28;20124;-60
2022/04/18 08:35:23;;;;;;;9.82;6.72;;;18.70;78.50;;;;;;5091777;28;20065;-60
2022/04/18 08:37:48;;;;;;;8.23;6.35;;;18.70;75.70;;;;;;5091765;28;20044;-59
2022/04/18 08:40:15;;;;;;;11.13;7.05;;;18.80;78.20;;;;;;5092018;28;20042;-59
2022/04/18 08:42:41;;;;;;;9.27;6.60;;;18.80;77.70;;;;;;5091788;28;20508;-60
2022/04/18 08:45:13;;;;;;;7.82;6.50;;;19.20;76.80;;;;;;5097195;28;20119;-60
2022/04/18 08:53:13;;;;;;;11.73;6.60;;;19.50;75.00;;;;;;5098533;28;20497;-60
2022/04/18 08:55:41;;;;;;;11.23;6.63;;;19.50;76.20;;;;;;5098503;28;20044;-60
2022/04/18 08:58:07;;;;;;;7.70;6.13;;;20.00;73.30;;;;;;5098445;28;20077;-60
2022/04/18 09:00:33;;;;;;;8.65;6.22;;;19.80;74.90;;;;;;5098434;28;20044;-59
2022/04/18 09:02:59;;;;;;;11.57;6.82;;;20.10;73.00;;;;;;5098235;28;20039;-60
2022/04/18 09:05:25;;;;;;;11.32;6.97;;;19.80;72.30;;;;;;5098599;28;20035;-60
2022/04/18 09:08:01;;;;;;;8.52;6.70;;;19.80;72.80;;;;;;5098434;28;20157;-60
2022/04/18 09:10:28;;;;;;;9.10;6.05;;;20.20;74.20;;;;;;5098174;28;20382;-59
2022/04/18 09:13:01;;;;;;;8.60;6.70;;;20.20;73.20;;;;;;5098228;28;20040;-59
2022/04/18 09:15:41;;;;;;;7.63;6.38;;;20.40;74.00;;;;;;5098169;28;20040;-60
2022/04/18 09:18:12;;;;;;;9.75;5.95;;;20.60;72.90;;;;;;5098327;28;20040;-59
2022/04/18 09:20:50;;;;;;;9.68;6.32;;;20.80;72.40;;;;;;5098920;28;20158;-60
2022/04/18 09:23:18;;;;;;;8.43;6.20;;;20.90;71.60;;;;;;5098204;28;20046;-59
2022/04/18 09:25:44;;;;;;;;;;;21.10;72.30;;;;;;5098615;28;20047;-59
2022/04/18 09:28:11;;;;;;;9.27;6.13;;;20.80;70.10;;;;;;5098275;28;20285;-60
2022/04/18 09:30:37;;;;;;;7.72;5.72;;;21.00;70.20;;;;;;5098045;28;20490;-60
2022/04/18 09:33:07;;;;;;;6.50;5.70;;;21.00;71.50;;;;;;5098213;28;20040;-60
2022/04/18 09:35:33;;;;;;;6.80;5.38;;;21.10;69.70;;;;;;5098270;28;20044;-60
2022/04/18 09:38:08;;;;;;;7.03;5.25;;;21.40;70.70;;;;;;5097927;28;20114;-60
2022/04/18 09:40:36;;;;;;;7.75;5.22;;;21.60;69.20;;;;;;5098062;28;20039;-60
2022/04/18 09:43:02;;;;;;;7.40;5.60;;;21.90;72.10;;;;;;5098023;28;20119;-59
2022/04/18 09:45:27;;;;;;;9.90;5.93;;;22.00;69.60;;;;;;5097964;28;20111;-60
2022/04/18 09:47:55;;;;;;;9.25;5.40;;;22.00;69.70;;;;;;5096913;28;20143;-60
2022/04/18 09:53:06;;;;;;;6.93;4.93;;;22.10;65.40;;;;;;5097842;28;20044;-59
2022/04/18 09:55:32;;;;;;;5.82;4.88;;;21.90;68.50;;;;;;5095518;28;20398;-60
2022/04/18 09:58:03;;;;;;;7.30;5.10;;;22.40;69.00;;;;;;5094774;28;20032;-60
2022/04/18 10:00:28;;;;;;;6.85;4.70;;;22.20;68.90;;;;;;5094795;28;20166;-59
2022/04/18 10:02:55;;;;;;;6.15;4.70;;;22.50;69.20;;;;;;5094799;28;20107;-58
2022/04/18 10:05:21;;;;;;;5.43;4.72;;;25.20;68.50;;;;;;5094780;28;20042;-59
2022/04/18 10:07:48;;;;;;;5.80;4.63;;;26.10;64.20;;;;;;5094778;28;20039;-59
2022/04/18 10:10:14;;;;;;;12.10;5.53;;;27.20;64.60;;;;;;5093330;28;20044;-59
2022/04/18 10:12:40;;;;;;;9.70;4.68;;;28.10;63.30;;;;;;5094673;28;20436;-59
2022/04/18 10:15:06;;;;;;;6.85;4.80;;;29.60;61.50;;;;;;5094577;28;20176;-59
2022/04/18 10:17:34;;;;;;;7.13;4.68;;;29.90;60.80;;;;;;5094310;28;20036;-59
2022/04/18 10:20:06;;;;;;;6.75;4.60;;;30.20;59.10;;;;;;5094374;28;20036;-58
2022/04/18 10:22:50;;;;;;;6.95;4.72;;;31.30;58.20;;;;;;5094619;28;20040;-59
2022/04/18 10:25:33;;;;;;;6.32;4.72;;;31.60;55.70;;;;;;5094471;28;20047;-58
2022/04/18 10:28:30;;;;;;;7.40;4.53;;;31.30;53.60;;;;;;5094380;28;20048;-58
2022/04/18 10:31:00;;;;;;;9.13;4.30;;;31.60;52.80;;;;;;5051626;28;20056;-58
2022/04/18 10:33:26;;;;;;;5.07;4.10;;;32.00;52.40;;;;;;5051279;28;20045;-59
2022/04/18 10:36:01;;;;;;;5.05;3.65;;;32.00;52.50;;;;;;5046319;28;20037;-59
2022/04/18 10:38:27;;;;;;;4.20;3.80;;;31.70;51.40;;;;;;5051374;28;20466;-59
2022/04/18 10:43:59;;;;;;;4.43;3.58;;;32.40;52.30;;;;;;5049634;28;20075;-59
2022/04/18 10:46:25;;;;;;;5.43;3.80;;;32.80;49.90;;;;;;5051694;28;20879;-59
2022/04/18 10:49:01;;;;;;;4.72;3.58;;;33.10;51.30;;;;;;5051985;28;20876;-59
2022/04/18 10:51:36;;;;;;;5.93;3.15;;;33.00;48.00;;;;;;5051758;28;20591;-59
2022/04/18 10:54:10;;;;;;;4.40;3.42;;;32.50;49.00;;;;;;5050844;28;20056;-58
2022/04/18 10:56:51;;;;;;;3.47;2.95;;;32.70;47.90;;;;;;5050057;28;20499;-59
2022/04/18 10:59:32;;;;;;;5.65;3.30;;;32.60;47.30;;;;;;5050554;28;20068;-59
2022/04/18 11:01:59;;;;;;;4.13;2.60;;;32.50;47.40;;;;;;5051295;28;20384;-58
2022/04/18 11:04:41;;;;;;;3.70;3.22;;;32.70;47.70;;;;;;5051724;28;20037;-58
2022/04/18 11:07:11;;;;;;;3.58;3.10;;;32.50;47.60;;;;;;5068580;28;20039;-58
2022/04/18 11:09:45;;;;;;;3.83;3.05;;;32.90;46.50;;;;;;5093814;28;20048;-58
2022/04/18 11:12:16;;;;;;;5.15;3.20;;;32.70;45.70;;;;;;5093750;28;20550;-58
2022/04/18 11:14:53;;;;;;;5.00;3.05;;;33.20;46.20;;;;;;5093829;28;20036;-58
2022/04/18 11:17:27;;;;;;;4.72;3.10;;;33.30;46.20;;;;;;5093861;28;20089;-58
2022/04/18 11:19:52;;;;;;;3.78;2.95;;;33.00;44.60;;;;;;5093524;28;20047;-57
2022/04/18 11:22:20;;;;;;;3.22;2.63;;;33.30;46.30;;;;;;5093756;28;20028;-58
2022/04/18 11:24:49;;;;;;;4.22;3.00;;;33.00;45.30;;;;;;5093483;28;20044;-58
2022/04/18 11:27:20;;;;;;;4.18;2.58;;;32.80;44.60;;;;;;5093802;28;20040;-58
2022/04/18 11:29:56;;;;;;;3.80;2.55;;;32.90;45.10;;;;;;5093666;28;20053;-58
2022/04/18 11:32:29;;;;;;;3.40;2.10;;;33.60;43.80;;;;;;5093291;28;20439;-58
2022/04/18 11:34:57;;;;;;;6.30;2.67;;;34.40;45.40;;;;;;5093303;28;20055;-58
2022/04/18 11:37:34;;;;;;;4.72;2.58;;;33.00;43.90;;;;;;5091831;28;20044;-58
2022/04/18 11:40:05;;;;;;;3.55;3.05;;;33.00;45.40;;;;;;5093352;28;20040;-58
2022/04/18 11:42:32;;;;;;;4.10;2.85;;;33.40;43.40;;;;;;5092977;28;20078;-58
2022/04/18 11:45:00;;;;;;;6.00;2.97;;;33.80;44.70;;;;;;5093192;28;20040;-58
2022/04/18 11:47:47;;;;;;;4.18;3.22;;;34.30;44.70;;;;;;5092859;28;20060;-58
2022/04/18 11:50:21;;;;;;;2.88;2.38;;;34.20;44.30;;;;;;5092605;28;20043;-58
2022/04/18 11:52:47;;;;;;;3.55;2.70;;;33.50;43.60;;;;;;5092951;28;20059;-58
2022/04/18 11:55:15;;;;;;;4.82;3.13;;;34.30;43.50;;;;;;5092829;28;20482;-58
2022/04/18 11:57:42;;;;;;;3.88;2.90;;;34.50;43.90;;;;;;5091805;28;20430;-58
2022/04/18 12:00:14;;;;;;;3.00;2.45;;;34.10;43.10;;;;;;5092619;28;20038;-58
2022/04/18 12:08:18;;;;;;;3.05;2.67;;;33.80;43.60;;;;;;5092687;28;20083;-58
2022/04/18 12:10:45;;;;;;;4.22;2.70;;;33.30;43.50;;;;;;5092937;28;20046;-58
2022/04/18 12:13:12;;;;;;;3.83;2.50;;;33.70;43.30;;;;;;5092569;28;20043;-59
2022/04/18 12:15:40;;;;;;;5.72;3.30;;;34.10;43.10;;;;;;5092819;28;20036;-58
2022/04/18 12:18:11;;;;;;;2.63;2.42;;;34.20;42.30;;;;;;5092432;28;20284;-58
2022/04/18 12:20:43;;;;;;;2.53;2.33;;;34.20;41.90;;;;;;5089697;28;20068;-58
2022/04/18 12:23:15;;;;;;;4.15;2.50;;;34.40;42.90;;;;;;5072086;28;20053;-58
2022/04/18 12:25:44;;;;;;;6.53;3.13;;;34.40;43.50;;;;;;5071082;28;20041;-58
2022/04/18 12:28:10;;;;;;;5.03;3.28;;;34.30;42.60;;;;;;5072312;28;20036;-58
2022/04/18 12:30:36;;;;;;;5.22;3.08;;;33.70;42.20;;;;;;5076590;28;20058;-58
2022/04/18 12:33:30;;;;;;;3.58;3.20;;;34.00;42.30;;;;;;5092483;28;20482;-59
2022/04/18 12:35:57;;;;;;;5.13;3.13;;;33.20;42.30;;;;;;5070461;28;20083;-59
2022/04/18 12:38:31;;;;;;;3.37;3.07;;;33.70;42.60;;;;;;5070118;28;20055;-59
2022/04/18 12:40:58;;;;;;;4.90;3.28;;;33.10;41.20;;;;;;5070020;28;20044;-59
2022/04/18 12:43:28;;;;;;;3.55;3.25;;;33.30;42.90;;;;;;5070060;28;20055;-59
2022/04/18 12:45:59;;;;;;;3.95;3.55;;;32.90;42.10;;;;;;5069993;28;20144;-59
2022/04/18 12:48:27;;;;;;;7.25;3.17;;;33.30;42.50;;;;;;5070069;28;20044;-59
2022/04/18 12:50:54;;;;;;;;;;;33.60;43.20;;;;;;5070234;28;20040;-59
2022/04/18 12:53:20;;;;;;;3.92;3.60;;;33.30;40.90;;;;;;5067515;28;20374;-59
2022/04/18 12:55:47;;;;;;;5.55;3.45;;;33.00;42.30;;;;;;5057191;28;20044;-60
2022/04/18 12:58:20;;;;;;;6.03;3.10;;;32.90;43.50;;;;;;5069528;28;20120;-58
2022/04/18 13:00:50;;;;;;;4.03;2.88;;;32.70;42.50;;;;;;5069635;28;20045;-58
2022/04/18 13:03:17;;;;;;;3.50;2.97;;;33.20;43.50;;;;;;5069993;28;20139;-58
2022/04/18 13:05:48;;;;;;;3.65;3.25;;;33.70;43.30;;;;;;5069835;28;20131;-58
2022/04/18 13:08:16;;;;;;;6.57;3.25;;;33.80;43.50;;;;;;5069643;28;20478;-58
2022/04/18 13:10:43;;;;;;;4.07;3.10;;;33.80;41.60;;;;;;5069757;28;20051;-58
2022/04/18 13:13:17;;;;;;;2.95;2.42;;;33.90;42.70;;;;;;5088429;28;20492;-58
2022/04/18 13:15:46;;;;;;;3.05;2.67;;;33.70;41.00;;;;;;5092059;28;20032;-58